sensor_id;sensor_type;location;lat;lon;timestamp;P1;durP1;ratioP1;P2;durP2;ratioP2
58071;SDS011;60383;46.626;18.866;2023-04-03T00:00:50;10.15;;;7.85;;
58071;SDS011;60383;46.626;18.866;2023-04-03T00:03:16;10.75;;;8.23;;
58071;SDS011;60383;46.626;18.866;2023-04-03T00:05:42;9.90;;;7.00;;
58071;SDS011;60383;46.626;18.866;2023-04-03T00:08:07;9.10;;;7.32;;
58071;SDS011;60383;46.626;18.866;2023-04-03T00:10:34;11.13;;;8.25;;
58071;SDS011;60383;46.626;18.866;2023-04-03T00:13:00;10.48;;;7.60;;
58071;SDS011;60383;46.626;18.866;2023-04-03T00:15:26;9.45;;;7.47;;
58071;SDS011;60383;46.626;18.866;2023-04-03T00:17:52;8.93;;;7.03;;
58071;SDS011;60383;46.626;18.866;2023-04-03T00:20:17;9.63;;;7.63;;
58071;SDS011;60383;46.626;18.866;2023-04-03T00:22:43;9.75;;;7.40;;
58071;SDS011;60383;46.626;18.866;2023-04-03T00:25:09;9.13;;;6.28;;
58071;SDS011;60383;46.626;18.866;2023-04-03T00:27:36;9.88;;;7.60;;
58071;SDS011;60383;46.626;18.866;2023-04-03T00:30:03;9.80;;;7.38;;
58071;SDS011;60383;46.626;18.866;2023-04-03T00:32:29;8.75;;;6.22;;
58071;SDS011;60383;46.626;18.866;2023-04-03T00:34:55;8.85;;;6.68;;
58071;SDS011;60383;46.626;18.866;2023-04-03T00:37:20;9.60;;;6.85;;
58071;SDS011;60383;46.626;18.866;2023-04-03T00:39:45;9.45;;;6.85;;
58071;SDS011;60383;46.626;18.866;2023-04-03T00:42:11;9.77;;;7.03;;
58071;SDS011;60383;46.626;18.866;2023-04-03T00:47:03;8.10;;;5.63;;
58071;SDS011;60383;46.626;18.866;2023-04-03T00:49:30;9.32;;;6.90;;
58071;SDS011;60383;46.626;18.866;2023-04-03T00:51:56;8.70;;;6.72;;
58071;SDS011;60383;46.626;18.866;2023-04-03T00:54:24;9.40;;;6.15;;
58071;SDS011;60383;46.626;18.866;2023-04-03T00:56:51;7.82;;;6.40;;
58071;SDS011;60383;46.626;18.866;2023-04-03T00:59:20;8.48;;;6.10;;
58071;SDS011;60383;46.626;18.866;2023-04-03T01:01:52;8.10;;;6.10;;
58071;SDS011;60383;46.626;18.866;2023-04-03T01:04:30;7.90;;;5.88;;
58071;SDS011;60383;46.626;18.866;2023-04-03T01:07:06;7.22;;;6.50;;
58071;SDS011;60383;46.626;18.866;2023-04-03T01:09:34;8.52;;;6.75;;
58071;SDS011;60383;46.626;18.866;2023-04-03T01:12:16;7.97;;;6.30;;
58071;SDS011;60383;46.626;18.866;2023-04-03T01:14:45;8.70;;;6.85;;
58071;SDS011;60383;46.626;18.866;2023-04-03T01:25:16;7.85;;;5.15;;
58071;SDS011;60383;46.626;18.866;2023-04-03T01:27:42;6.57;;;5.00;;
58071;SDS011;60383;46.626;18.866;2023-04-03T01:30:08;7.35;;;5.95;;
58071;SDS011;60383;46.626;18.866;2023-04-03T01:32:34;7.35;;;6.07;;
58071;SDS011;60383;46.626;18.866;2023-04-03T01:34:59;7.28;;;5.90;;
58071;SDS011;60383;46.626;18.866;2023-04-03T01:37:25;8.40;;;5.82;;
58071;SDS011;60383;46.626;18.866;2023-04-03T01:39:50;7.28;;;5.72;;
58071;SDS011;60383;46.626;18.866;2023-04-03T01:42:16;7.80;;;5.18;;
58071;SDS011;60383;46.626;18.866;2023-04-03T01:44:41;7.32;;;6.03;;
58071;SDS011;60383;46.626;18.866;2023-04-03T01:47:07;6.60;;;5.47;;
58071;SDS011;60383;46.626;18.866;2023-04-03T01:49:33;7.00;;;5.80;;
58071;SDS011;60383;46.626;18.866;2023-04-03T01:51:58;6.95;;;5.60;;
58071;SDS011;60383;46.626;18.866;2023-04-03T01:54:24;7.07;;;5.55;;
58071;SDS011;60383;46.626;18.866;2023-04-03T01:56:49;7.85;;;5.40;;
58071;SDS011;60383;46.626;18.866;2023-04-03T01:59:15;7.32;;;5.75;;
58071;SDS011;60383;46.626;18.866;2023-04-03T02:01:42;7.07;;;5.63;;
58071;SDS011;60383;46.626;18.866;2023-04-03T02:04:10;8.55;;;5.85;;
58071;SDS011;60383;46.626;18.866;2023-04-03T02:06:36;7.28;;;5.75;;
58071;SDS011;60383;46.626;18.866;2023-04-03T02:09:02;8.65;;;6.65;;
58071;SDS011;60383;46.626;18.866;2023-04-03T02:11:28;6.18;;;4.93;;
58071;SDS011;60383;46.626;18.866;2023-04-03T02:13:53;8.30;;;5.90;;
58071;SDS011;60383;46.626;18.866;2023-04-03T02:16:19;8.23;;;5.50;;
58071;SDS011;60383;46.626;18.866;2023-04-03T02:18:45;8.02;;;5.53;;
58071;SDS011;60383;46.626;18.866;2023-04-03T02:21:10;8.27;;;6.25;;
58071;SDS011;60383;46.626;18.866;2023-04-03T02:23:35;7.72;;;5.95;;
58071;SDS011;60383;46.626;18.866;2023-04-03T02:26:09;7.60;;;5.85;;
58071;SDS011;60383;46.626;18.866;2023-04-03T02:28:36;6.32;;;5.35;;
58071;SDS011;60383;46.626;18.866;2023-04-03T02:31:03;7.60;;;5.53;;
58071;SDS011;60383;46.626;18.866;2023-04-03T02:33:31;7.32;;;6.10;;
58071;SDS011;60383;46.626;18.866;2023-04-03T02:35:57;7.38;;;5.30;;
58071;SDS011;60383;46.626;18.866;2023-04-03T02:38:23;7.65;;;5.63;;
58071;SDS011;60383;46.626;18.866;2023-04-03T02:40:49;7.90;;;5.93;;
58071;SDS011;60383;46.626;18.866;2023-04-03T02:43:16;7.50;;;5.57;;
58071;SDS011;60383;46.626;18.866;2023-04-03T02:45:42;7.88;;;5.82;;
58071;SDS011;60383;46.626;18.866;2023-04-03T02:48:07;6.88;;;5.60;;
58071;SDS011;60383;46.626;18.866;2023-04-03T02:50:32;7.10;;;4.70;;
58071;SDS011;60383;46.626;18.866;2023-04-03T02:52:58;7.32;;;5.43;;
58071;SDS011;60383;46.626;18.866;2023-04-03T02:55:23;8.23;;;6.03;;
58071;SDS011;60383;46.626;18.866;2023-04-03T02:57:49;7.32;;;5.93;;
58071;SDS011;60383;46.626;18.866;2023-04-03T03:00:15;9.05;;;5.95;;
58071;SDS011;60383;46.626;18.866;2023-04-03T03:02:40;7.35;;;5.03;;
58071;SDS011;60383;46.626;18.866;2023-04-03T03:05:06;7.25;;;5.50;;
58071;SDS011;60383;46.626;18.866;2023-04-03T03:07:32;8.55;;;5.75;;
58071;SDS011;60383;46.626;18.866;2023-04-03T03:09:58;9.13;;;7.20;;
58071;SDS011;60383;46.626;18.866;2023-04-03T03:12:24;9.05;;;7.00;;
58071;SDS011;60383;46.626;18.866;2023-04-03T03:14:50;7.38;;;5.82;;
58071;SDS011;60383;46.626;18.866;2023-04-03T03:17:15;8.10;;;6.10;;
58071;SDS011;60383;46.626;18.866;2023-04-03T03:19:41;6.90;;;5.10;;
58071;SDS011;60383;46.626;18.866;2023-04-03T03:22:07;6.97;;;5.43;;
58071;SDS011;60383;46.626;18.866;2023-04-03T03:24:32;7.20;;;5.80;;
58071;SDS011;60383;46.626;18.866;2023-04-03T03:26:58;9.52;;;6.15;;
58071;SDS011;60383;46.626;18.866;2023-04-03T03:29:23;7.35;;;6.05;;
58071;SDS011;60383;46.626;18.866;2023-04-03T03:31:49;7.15;;;5.78;;
58071;SDS011;60383;46.626;18.866;2023-04-03T03:34:14;7.75;;;6.20;;
58071;SDS011;60383;46.626;18.866;2023-04-03T03:36:40;7.18;;;5.75;;
58071;SDS011;60383;46.626;18.866;2023-04-03T03:39:06;7.15;;;5.28;;
58071;SDS011;60383;46.626;18.866;2023-04-03T03:41:32;8.23;;;5.88;;
58071;SDS011;60383;46.626;18.866;2023-04-03T03:43:57;7.82;;;5.85;;
58071;SDS011;60383;46.626;18.866;2023-04-03T03:46:23;7.10;;;6.18;;
58071;SDS011;60383;46.626;18.866;2023-04-03T03:48:48;6.47;;;5.20;;
58071;SDS011;60383;46.626;18.866;2023-04-03T03:51:14;8.18;;;5.65;;
58071;SDS011;60383;46.626;18.866;2023-04-03T03:53:40;6.95;;;5.65;;
58071;SDS011;60383;46.626;18.866;2023-04-03T03:56:05;6.95;;;5.45;;
58071;SDS011;60383;46.626;18.866;2023-04-03T03:58:34;6.68;;;5.07;;
58071;SDS011;60383;46.626;18.866;2023-04-03T04:01:03;7.32;;;4.90;;
58071;SDS011;60383;46.626;18.866;2023-04-03T04:03:30;7.03;;;5.37;;
58071;SDS011;60383;46.626;18.866;2023-04-03T04:05:56;6.60;;;5.57;;
58071;SDS011;60383;46.626;18.866;2023-04-03T04:08:22;6.72;;;5.57;;
58071;SDS011;60383;46.626;18.866;2023-04-03T04:10:48;6.78;;;5.07;;
58071;SDS011;60383;46.626;18.866;2023-04-03T04:13:13;6.68;;;5.40;;
58071;SDS011;60383;46.626;18.866;2023-04-03T04:15:39;6.95;;;5.32;;
58071;SDS011;60383;46.626;18.866;2023-04-03T04:18:05;6.93;;;4.55;;
58071;SDS011;60383;46.626;18.866;2023-04-03T04:20:30;6.82;;;5.13;;
58071;SDS011;60383;46.626;18.866;2023-04-03T04:22:56;7.32;;;5.68;;
58071;SDS011;60383;46.626;18.866;2023-04-03T04:25:21;7.20;;;5.35;;
58071;SDS011;60383;46.626;18.866;2023-04-03T04:27:47;7.90;;;5.47;;
58071;SDS011;60383;46.626;18.866;2023-04-03T04:30:12;6.93;;;5.82;;
58071;SDS011;60383;46.626;18.866;2023-04-03T04:32:38;6.28;;;5.03;;
58071;SDS011;60383;46.626;18.866;2023-04-03T04:35:04;6.18;;;5.25;;
58071;SDS011;60383;46.626;18.866;2023-04-03T04:37:30;6.45;;;5.00;;
58071;SDS011;60383;46.626;18.866;2023-04-03T04:39:56;7.38;;;5.03;;
58071;SDS011;60383;46.626;18.866;2023-04-03T04:42:21;7.35;;;5.22;;
58071;SDS011;60383;46.626;18.866;2023-04-03T04:44:47;7.45;;;5.25;;
58071;SDS011;60383;46.626;18.866;2023-04-03T04:47:12;6.65;;;5.25;;
58071;SDS011;60383;46.626;18.866;2023-04-03T04:49:38;6.80;;;5.15;;
58071;SDS011;60383;46.626;18.866;2023-04-03T04:52:03;5.47;;;4.55;;
58071;SDS011;60383;46.626;18.866;2023-04-03T04:54:29;7.03;;;5.10;;
58071;SDS011;60383;46.626;18.866;2023-04-03T04:56:54;7.50;;;5.50;;
58071;SDS011;60383;46.626;18.866;2023-04-03T04:59:20;6.38;;;4.93;;
58071;SDS011;60383;46.626;18.866;2023-04-03T05:01:45;5.95;;;4.50;;
58071;SDS011;60383;46.626;18.866;2023-04-03T05:04:11;6.47;;;5.13;;
58071;SDS011;60383;46.626;18.866;2023-04-03T05:06:37;5.45;;;4.82;;
58071;SDS011;60383;46.626;18.866;2023-04-03T05:09:03;6.13;;;4.85;;
58071;SDS011;60383;46.626;18.866;2023-04-03T05:11:29;6.72;;;4.97;;
58071;SDS011;60383;46.626;18.866;2023-04-03T05:13:55;6.18;;;4.15;;
58071;SDS011;60383;46.626;18.866;2023-04-03T05:16:20;8.32;;;5.32;;
58071;SDS011;60383;46.626;18.866;2023-04-03T05:18:46;9.45;;;6.10;;
58071;SDS011;60383;46.626;18.866;2023-04-03T05:21:11;7.50;;;5.60;;
58071;SDS011;60383;46.626;18.866;2023-04-03T05:23:37;7.47;;;5.43;;
58071;SDS011;60383;46.626;18.866;2023-04-03T05:26:02;5.82;;;4.70;;
58071;SDS011;60383;46.626;18.866;2023-04-03T05:28:28;5.65;;;4.55;;
58071;SDS011;60383;46.626;18.866;2023-04-03T05:30:54;5.55;;;4.90;;
58071;SDS011;60383;46.626;18.866;2023-04-03T05:33:21;5.07;;;4.55;;
58071;SDS011;60383;46.626;18.866;2023-04-03T05:35:47;5.47;;;4.63;;
58071;SDS011;60383;46.626;18.866;2023-04-03T05:38:12;5.88;;;5.10;;
58071;SDS011;60383;46.626;18.866;2023-04-03T05:40:38;5.75;;;4.72;;
58071;SDS011;60383;46.626;18.866;2023-04-03T05:43:03;6.10;;;5.18;;
58071;SDS011;60383;46.626;18.866;2023-04-03T05:45:29;6.80;;;5.05;;
58071;SDS011;60383;46.626;18.866;2023-04-03T05:47:55;6.70;;;5.20;;
58071;SDS011;60383;46.626;18.866;2023-04-03T05:50:20;6.63;;;5.45;;
58071;SDS011;60383;46.626;18.866;2023-04-03T05:52:46;5.50;;;4.97;;
58071;SDS011;60383;46.626;18.866;2023-04-03T05:55:14;5.90;;;4.68;;
58071;SDS011;60383;46.626;18.866;2023-04-03T05:57:39;5.80;;;4.45;;
58071;SDS011;60383;46.626;18.866;2023-04-03T06:00:05;5.45;;;4.65;;
58071;SDS011;60383;46.626;18.866;2023-04-03T06:02:33;6.32;;;4.95;;
58071;SDS011;60383;46.626;18.866;2023-04-03T06:04:58;5.82;;;4.70;;
58071;SDS011;60383;46.626;18.866;2023-04-03T06:07:24;5.53;;;4.60;;
58071;SDS011;60383;46.626;18.866;2023-04-03T06:09:54;7.25;;;5.50;;
58071;SDS011;60383;46.626;18.866;2023-04-03T06:12:21;5.32;;;4.78;;
58071;SDS011;60383;46.626;18.866;2023-04-03T06:14:47;5.88;;;4.70;;
58071;SDS011;60383;46.626;18.866;2023-04-03T06:17:13;5.60;;;4.85;;
58071;SDS011;60383;46.626;18.866;2023-04-03T06:19:40;6.15;;;4.65;;
58071;SDS011;60383;46.626;18.866;2023-04-03T06:22:06;5.72;;;4.82;;
58071;SDS011;60383;46.626;18.866;2023-04-03T06:24:32;7.32;;;5.40;;
58071;SDS011;60383;46.626;18.866;2023-04-03T06:26:58;7.00;;;4.70;;
58071;SDS011;60383;46.626;18.866;2023-04-03T06:29:23;6.03;;;5.00;;
58071;SDS011;60383;46.626;18.866;2023-04-03T06:31:49;5.18;;;4.38;;
58071;SDS011;60383;46.626;18.866;2023-04-03T06:34:15;6.55;;;5.18;;
58071;SDS011;60383;46.626;18.866;2023-04-03T06:36:42;7.40;;;5.20;;
58071;SDS011;60383;46.626;18.866;2023-04-03T06:39:09;6.03;;;5.28;;
58071;SDS011;60383;46.626;18.866;2023-04-03T06:41:38;8.45;;;7.28;;
58071;SDS011;60383;46.626;18.866;2023-04-03T06:44:04;5.18;;;4.60;;
58071;SDS011;60383;46.626;18.866;2023-04-03T06:46:29;7.93;;;5.00;;
58071;SDS011;60383;46.626;18.866;2023-04-03T06:48:55;5.15;;;4.65;;
58071;SDS011;60383;46.626;18.866;2023-04-03T06:51:22;6.13;;;5.15;;
58071;SDS011;60383;46.626;18.866;2023-04-03T06:53:53;5.72;;;4.68;;
58071;SDS011;60383;46.626;18.866;2023-04-03T06:56:21;6.32;;;4.80;;
58071;SDS011;60383;46.626;18.866;2023-04-03T06:58:49;5.63;;;5.13;;
58071;SDS011;60383;46.626;18.866;2023-04-03T07:01:16;6.43;;;4.88;;
58071;SDS011;60383;46.626;18.866;2023-04-03T07:03:44;6.28;;;5.40;;
58071;SDS011;60383;46.626;18.866;2023-04-03T07:06:11;6.32;;;5.10;;
58071;SDS011;60383;46.626;18.866;2023-04-03T07:08:38;5.30;;;4.60;;
58071;SDS011;60383;46.626;18.866;2023-04-03T07:11:05;5.90;;;5.25;;
58071;SDS011;60383;46.626;18.866;2023-04-03T07:13:31;5.55;;;4.47;;
58071;SDS011;60383;46.626;18.866;2023-04-03T07:15:56;5.63;;;4.45;;
58071;SDS011;60383;46.626;18.866;2023-04-03T07:18:22;5.45;;;4.63;;
58071;SDS011;60383;46.626;18.866;2023-04-03T07:20:48;6.20;;;5.10;;
58071;SDS011;60383;46.626;18.866;2023-04-03T07:23:13;5.90;;;5.13;;
58071;SDS011;60383;46.626;18.866;2023-04-03T07:25:43;4.78;;;4.38;;
58071;SDS011;60383;46.626;18.866;2023-04-03T07:28:10;6.00;;;5.13;;
58071;SDS011;60383;46.626;18.866;2023-04-03T07:30:46;5.13;;;4.53;;
58071;SDS011;60383;46.626;18.866;2023-04-03T07:33:16;6.28;;;5.68;;
58071;SDS011;60383;46.626;18.866;2023-04-03T07:35:43;6.10;;;4.97;;
58071;SDS011;60383;46.626;18.866;2023-04-03T07:38:09;5.57;;;4.78;;
58071;SDS011;60383;46.626;18.866;2023-04-03T07:40:35;5.35;;;4.40;;
58071;SDS011;60383;46.626;18.866;2023-04-03T07:43:02;6.00;;;5.30;;
58071;SDS011;60383;46.626;18.866;2023-04-03T07:45:27;6.22;;;5.20;;
58071;SDS011;60383;46.626;18.866;2023-04-03T07:47:53;6.32;;;4.93;;
58071;SDS011;60383;46.626;18.866;2023-04-03T07:50:19;5.80;;;5.03;;
58071;SDS011;60383;46.626;18.866;2023-04-03T07:52:44;5.50;;;4.63;;
58071;SDS011;60383;46.626;18.866;2023-04-03T07:55:10;5.82;;;5.18;;
58071;SDS011;60383;46.626;18.866;2023-04-03T07:57:37;6.25;;;4.93;;
58071;SDS011;60383;46.626;18.866;2023-04-03T08:00:03;5.72;;;4.63;;
58071;SDS011;60383;46.626;18.866;2023-04-03T08:02:29;5.65;;;5.05;;
58071;SDS011;60383;46.626;18.866;2023-04-03T08:04:56;5.15;;;4.65;;
58071;SDS011;60383;46.626;18.866;2023-04-03T08:07:25;4.85;;;4.35;;
58071;SDS011;60383;46.626;18.866;2023-04-03T08:09:51;7.28;;;5.07;;
58071;SDS011;60383;46.626;18.866;2023-04-03T08:12:17;5.15;;;4.65;;
58071;SDS011;60383;46.626;18.866;2023-04-03T08:14:43;7.10;;;5.22;;
58071;SDS011;60383;46.626;18.866;2023-04-03T08:17:08;5.20;;;4.65;;
58071;SDS011;60383;46.626;18.866;2023-04-03T08:19:37;5.53;;;4.93;;
58071;SDS011;60383;46.626;18.866;2023-04-03T08:22:03;5.55;;;4.82;;
58071;SDS011;60383;46.626;18.866;2023-04-03T08:24:30;6.00;;;4.55;;
58071;SDS011;60383;46.626;18.866;2023-04-03T08:26:56;4.97;;;4.47;;
58071;SDS011;60383;46.626;18.866;2023-04-03T08:29:22;6.93;;;5.22;;
58071;SDS011;60383;46.626;18.866;2023-04-03T08:31:48;5.53;;;4.53;;
58071;SDS011;60383;46.626;18.866;2023-04-03T08:34:15;5.20;;;4.70;;
58071;SDS011;60383;46.626;18.866;2023-04-03T08:36:41;5.70;;;4.45;;
58071;SDS011;60383;46.626;18.866;2023-04-03T08:39:07;5.57;;;4.45;;
58071;SDS011;60383;46.626;18.866;2023-04-03T08:41:34;5.55;;;4.40;;
58071;SDS011;60383;46.626;18.866;2023-04-03T08:49:44;5.57;;;4.93;;
58071;SDS011;60383;46.626;18.866;2023-04-03T08:52:19;6.10;;;4.90;;
58071;SDS011;60383;46.626;18.866;2023-04-03T08:54:56;7.05;;;5.22;;
58071;SDS011;60383;46.626;18.866;2023-04-03T08:57:35;6.60;;;4.72;;
58071;SDS011;60383;46.626;18.866;2023-04-03T09:02:42;5.65;;;4.72;;
58071;SDS011;60383;46.626;18.866;2023-04-03T09:05:17;6.00;;;4.88;;
58071;SDS011;60383;46.626;18.866;2023-04-03T09:07:47;6.07;;;5.05;;
58071;SDS011;60383;46.626;18.866;2023-04-03T09:10:24;5.45;;;4.63;;
58071;SDS011;60383;46.626;18.866;2023-04-03T09:13:01;5.07;;;4.50;;
58071;SDS011;60383;46.626;18.866;2023-04-03T09:15:43;5.97;;;4.90;;
58071;SDS011;60383;46.626;18.866;2023-04-03T09:23:24;6.40;;;4.47;;
58071;SDS011;60383;46.626;18.866;2023-04-03T09:25:52;4.88;;;4.18;;
58071;SDS011;60383;46.626;18.866;2023-04-03T09:28:21;4.35;;;3.88;;
58071;SDS011;60383;46.626;18.866;2023-04-03T09:30:47;5.22;;;4.30;;
58071;SDS011;60383;46.626;18.866;2023-04-03T09:33:12;5.40;;;4.22;;
58071;SDS011;60383;46.626;18.866;2023-04-03T09:35:39;5.70;;;4.60;;
58071;SDS011;60383;46.626;18.866;2023-04-03T09:40:36;12.15;;;7.32;;
58071;SDS011;60383;46.626;18.866;2023-04-03T09:43:20;6.05;;;4.80;;
58071;SDS011;60383;46.626;18.866;2023-04-03T09:45:51;6.25;;;4.95;;
58071;SDS011;60383;46.626;18.866;2023-04-03T09:48:19;5.40;;;4.63;;
58071;SDS011;60383;46.626;18.866;2023-04-03T09:53:28;5.30;;;4.38;;
58071;SDS011;60383;46.626;18.866;2023-04-03T09:55:56;6.50;;;5.07;;
58071;SDS011;60383;46.626;18.866;2023-04-03T09:58:23;6.75;;;4.72;;
58071;SDS011;60383;46.626;18.866;2023-04-03T10:00:55;5.38;;;4.78;;
58071;SDS011;60383;46.626;18.866;2023-04-03T10:03:31;6.60;;;5.43;;
58071;SDS011;60383;46.626;18.866;2023-04-03T10:06:00;6.00;;;4.57;;
58071;SDS011;60383;46.626;18.866;2023-04-03T10:08:32;5.00;;;4.25;;
58071;SDS011;60383;46.626;18.866;2023-04-03T10:11:31;6.38;;;5.22;;
58071;SDS011;60383;46.626;18.866;2023-04-03T10:13:51;5.28;;;4.78;;
58071;SDS011;60383;46.626;18.866;2023-04-03T10:16:18;5.30;;;4.32;;
58071;SDS011;60383;46.626;18.866;2023-04-03T10:19:50;7.43;;;6.00;;
58071;SDS011;60383;46.626;18.866;2023-04-03T10:21:52;5.72;;;4.50;;
58071;SDS011;60383;46.626;18.866;2023-04-03T10:27:18;4.90;;;4.18;;
58071;SDS011;60383;46.626;18.866;2023-04-03T10:30:04;5.20;;;4.70;;
58071;SDS011;60383;46.626;18.866;2023-04-03T10:35:16;6.57;;;4.50;;
58071;SDS011;60383;46.626;18.866;2023-04-03T10:38:27;5.78;;;4.72;;
58071;SDS011;60383;46.626;18.866;2023-04-03T10:40:57;6.30;;;4.70;;
58071;SDS011;60383;46.626;18.866;2023-04-03T10:46:28;7.00;;;5.13;;
58071;SDS011;60383;46.626;18.866;2023-04-03T10:56:56;7.60;;;5.00;;
58071;SDS011;60383;46.626;18.866;2023-04-03T10:59:28;5.70;;;4.70;;
58071;SDS011;60383;46.626;18.866;2023-04-03T11:02:07;5.82;;;4.97;;
58071;SDS011;60383;46.626;18.866;2023-04-03T11:04:44;6.13;;;5.18;;
58071;SDS011;60383;46.626;18.866;2023-04-03T11:07:15;6.45;;;5.05;;
58071;SDS011;60383;46.626;18.866;2023-04-03T11:09:46;6.40;;;5.30;;
58071;SDS011;60383;46.626;18.866;2023-04-03T11:12:28;6.40;;;5.50;;
58071;SDS011;60383;46.626;18.866;2023-04-03T11:15:03;5.55;;;4.85;;
58071;SDS011;60383;46.626;18.866;2023-04-03T11:17:34;5.97;;;5.30;;
58071;SDS011;60383;46.626;18.866;2023-04-03T11:22:47;7.40;;;5.50;;
58071;SDS011;60383;46.626;18.866;2023-04-03T11:25:25;7.88;;;5.63;;
58071;SDS011;60383;46.626;18.866;2023-04-03T11:28:00;8.40;;;6.13;;
58071;SDS011;60383;46.626;18.866;2023-04-03T11:30:52;8.52;;;7.35;;
58071;SDS011;60383;46.626;18.866;2023-04-03T11:36:31;8.35;;;5.95;;
58071;SDS011;60383;46.626;18.866;2023-04-03T11:39:22;7.50;;;6.22;;
58071;SDS011;60383;46.626;18.866;2023-04-03T11:41:48;7.28;;;6.47;;
58071;SDS011;60383;46.626;18.866;2023-04-03T11:44:32;6.13;;;5.32;;
58071;SDS011;60383;46.626;18.866;2023-04-03T11:47:02;5.75;;;5.10;;
58071;SDS011;60383;46.626;18.866;2023-04-03T12:03:55;6.07;;;4.82;;
58071;SDS011;60383;46.626;18.866;2023-04-03T12:08:57;5.43;;;4.40;;
58071;SDS011;60383;46.626;18.866;2023-04-03T12:11:24;5.05;;;4.53;;
58071;SDS011;60383;46.626;18.866;2023-04-03T12:16:23;5.15;;;3.97;;
58071;SDS011;60383;46.626;18.866;2023-04-03T12:26:21;5.85;;;4.72;;
58071;SDS011;60383;46.626;18.866;2023-04-03T12:28:52;5.18;;;4.53;;
58071;SDS011;60383;46.626;18.866;2023-04-03T12:31:18;5.97;;;4.95;;
58071;SDS011;60383;46.626;18.866;2023-04-03T12:34:11;4.88;;;4.38;;
58071;SDS011;60383;46.626;18.866;2023-04-03T12:36:51;4.82;;;4.07;;
58071;SDS011;60383;46.626;18.866;2023-04-03T12:43:08;4.78;;;4.07;;
58071;SDS011;60383;46.626;18.866;2023-04-03T12:45:20;5.10;;;3.95;;
58071;SDS011;60383;46.626;18.866;2023-04-03T12:50:30;4.93;;;4.15;;
58071;SDS011;60383;46.626;18.866;2023-04-03T12:53:04;5.25;;;3.97;;
58071;SDS011;60383;46.626;18.866;2023-04-03T12:55:32;4.07;;;3.60;;
58071;SDS011;60383;46.626;18.866;2023-04-03T12:58:13;5.25;;;3.60;;
58071;SDS011;60383;46.626;18.866;2023-04-03T13:00:46;4.57;;;3.30;;
58071;SDS011;60383;46.626;18.866;2023-04-03T13:03:22;3.65;;;3.25;;
58071;SDS011;60383;46.626;18.866;2023-04-03T13:05:51;7.35;;;3.30;;
58071;SDS011;60383;46.626;18.866;2023-04-03T13:08:19;4.43;;;3.08;;
58071;SDS011;60383;46.626;18.866;2023-04-03T13:10:55;3.92;;;3.30;;
58071;SDS011;60383;46.626;18.866;2023-04-03T13:13:22;4.00;;;3.40;;
58071;SDS011;60383;46.626;18.866;2023-04-03T13:15:48;3.58;;;3.10;;
58071;SDS011;60383;46.626;18.866;2023-04-03T13:18:48;5.40;;;3.10;;
58071;SDS011;60383;46.626;18.866;2023-04-03T13:21:20;3.30;;;2.80;;
58071;SDS011;60383;46.626;18.866;2023-04-03T13:23:51;3.42;;;2.95;;
58071;SDS011;60383;46.626;18.866;2023-04-03T13:26:20;8.07;;;5.75;;
58071;SDS011;60383;46.626;18.866;2023-04-03T13:28:48;5.40;;;3.88;;
58071;SDS011;60383;46.626;18.866;2023-04-03T13:31:34;3.38;;;3.08;;
58071;SDS011;60383;46.626;18.866;2023-04-03T13:36:55;3.97;;;3.33;;
58071;SDS011;60383;46.626;18.866;2023-04-03T13:39:25;4.70;;;3.80;;
58071;SDS011;60383;46.626;18.866;2023-04-03T13:41:57;4.22;;;3.45;;
58071;SDS011;60383;46.626;18.866;2023-04-03T13:44:29;4.40;;;3.95;;
58071;SDS011;60383;46.626;18.866;2023-04-03T13:49:36;6.15;;;3.15;;
58071;SDS011;60383;46.626;18.866;2023-04-03T13:52:26;3.05;;;2.85;;
58071;SDS011;60383;46.626;18.866;2023-04-03T13:57:59;3.30;;;3.00;;
58071;SDS011;60383;46.626;18.866;2023-04-03T14:01:10;3.83;;;3.40;;
58071;SDS011;60383;46.626;18.866;2023-04-03T14:05:48;3.65;;;3.22;;
58071;SDS011;60383;46.626;18.866;2023-04-03T14:08:14;4.88;;;2.92;;
58071;SDS011;60383;46.626;18.866;2023-04-03T14:10:39;3.97;;;3.05;;
58071;SDS011;60383;46.626;18.866;2023-04-03T14:13:05;3.25;;;2.80;;
58071;SDS011;60383;46.626;18.866;2023-04-03T14:15:31;2.88;;;2.53;;
58071;SDS011;60383;46.626;18.866;2023-04-03T14:17:57;2.45;;;2.25;;
58071;SDS011;60383;46.626;18.866;2023-04-03T14:20:24;3.00;;;2.10;;
58071;SDS011;60383;46.626;18.866;2023-04-03T14:22:51;3.22;;;2.33;;
58071;SDS011;60383;46.626;18.866;2023-04-03T14:25:19;2.60;;;2.08;;
58071;SDS011;60383;46.626;18.866;2023-04-03T14:27:46;2.20;;;2.00;;
58071;SDS011;60383;46.626;18.866;2023-04-03T14:30:24;1.90;;;1.80;;
58071;SDS011;60383;46.626;18.866;2023-04-03T14:32:53;2.10;;;1.90;;
58071;SDS011;60383;46.626;18.866;2023-04-03T14:35:19;2.45;;;1.95;;
58071;SDS011;60383;46.626;18.866;2023-04-03T14:37:45;3.75;;;2.63;;
58071;SDS011;60383;46.626;18.866;2023-04-03T14:40:16;2.28;;;2.08;;
58071;SDS011;60383;46.626;18.866;2023-04-03T14:42:44;2.85;;;2.20;;
58071;SDS011;60383;46.626;18.866;2023-04-03T14:45:12;2.83;;;2.50;;
58071;SDS011;60383;46.626;18.866;2023-04-03T14:47:43;6.50;;;3.47;;
58071;SDS011;60383;46.626;18.866;2023-04-03T14:50:16;3.70;;;2.45;;
58071;SDS011;60383;46.626;18.866;2023-04-03T14:52:44;2.85;;;2.35;;
58071;SDS011;60383;46.626;18.866;2023-04-03T14:55:11;5.07;;;3.42;;
58071;SDS011;60383;46.626;18.866;2023-04-03T14:57:39;5.20;;;3.60;;
58071;SDS011;60383;46.626;18.866;2023-04-03T15:00:06;12.73;;;6.40;;
58071;SDS011;60383;46.626;18.866;2023-04-03T15:02:37;12.48;;;5.80;;
58071;SDS011;60383;46.626;18.866;2023-04-03T15:05:05;10.35;;;5.15;;
58071;SDS011;60383;46.626;18.866;2023-04-03T15:07:34;8.50;;;4.10;;
58071;SDS011;60383;46.626;18.866;2023-04-03T15:10:02;16.63;;;6.07;;
58071;SDS011;60383;46.626;18.866;2023-04-03T15:12:40;8.80;;;5.07;;
58071;SDS011;60383;46.626;18.866;2023-04-03T15:15:06;11.05;;;5.43;;
58071;SDS011;60383;46.626;18.866;2023-04-03T15:17:32;12.13;;;7.18;;
58071;SDS011;60383;46.626;18.866;2023-04-03T15:19:59;6.10;;;4.10;;
58071;SDS011;60383;46.626;18.866;2023-04-03T15:22:25;4.32;;;3.78;;
58071;SDS011;60383;46.626;18.866;2023-04-03T15:24:51;5.35;;;4.30;;
58071;SDS011;60383;46.626;18.866;2023-04-03T15:27:16;6.35;;;4.80;;
58071;SDS011;60383;46.626;18.866;2023-04-03T15:29:42;6.10;;;4.35;;
58071;SDS011;60383;46.626;18.866;2023-04-03T15:32:08;10.63;;;7.47;;
58071;SDS011;60383;46.626;18.866;2023-04-03T15:34:35;8.30;;;5.10;;
58071;SDS011;60383;46.626;18.866;2023-04-03T15:37:01;7.43;;;5.13;;
58071;SDS011;60383;46.626;18.866;2023-04-03T15:39:27;7.40;;;4.53;;
58071;SDS011;60383;46.626;18.866;2023-04-03T15:41:53;9.07;;;5.60;;
58071;SDS011;60383;46.626;18.866;2023-04-03T15:44:19;7.88;;;4.70;;
58071;SDS011;60383;46.626;18.866;2023-04-03T15:46:47;8.82;;;4.65;;
58071;SDS011;60383;46.626;18.866;2023-04-03T15:49:16;8.27;;;5.90;;
58071;SDS011;60383;46.626;18.866;2023-04-03T15:51:46;7.47;;;3.80;;
58071;SDS011;60383;46.626;18.866;2023-04-03T15:54:11;6.00;;;4.30;;
58071;SDS011;60383;46.626;18.866;2023-04-03T15:56:37;5.95;;;4.00;;
58071;SDS011;60383;46.626;18.866;2023-04-03T15:59:03;4.93;;;3.65;;
58071;SDS011;60383;46.626;18.866;2023-04-03T16:01:29;7.38;;;4.13;;
58071;SDS011;60383;46.626;18.866;2023-04-03T16:03:54;6.55;;;3.80;;
58071;SDS011;60383;46.626;18.866;2023-04-03T16:06:20;5.72;;;4.10;;
58071;SDS011;60383;46.626;18.866;2023-04-03T16:08:46;6.85;;;3.85;;
58071;SDS011;60383;46.626;18.866;2023-04-03T16:11:13;6.30;;;3.85;;
58071;SDS011;60383;46.626;18.866;2023-04-03T16:13:38;5.63;;;4.20;;
58071;SDS011;60383;46.626;18.866;2023-04-03T16:16:04;6.72;;;3.50;;